Time;durP1;ratioP1;P1;durP2;ratioP2;P2;SDS_P1;SDS_P2;PMS_P1;PMS_P2;Temp;Humidity;BMP_temperature;BMP_pressure;BME280_temperature;BME280_humidity;BME280_pressure;Samples;Min_cycle;Max_cycle;Signal;HPM_P1;HPM_P2
2023/02/23 00:01:12;;;;;;;;;;;21.60;60.00;;;;;;1527677;76;1936;-69
2023/02/23 00:03:14;;;;;;;;;;;21.60;60.20;;;;;;1528717;76;1633;-64
2023/02/23 00:05:16;;;;;;;;;;;21.60;60.30;;;;;;1525692;76;710;-64
2023/02/23 00:07:19;;;;;;;;;;;21.60;60.20;;;;;;1533685;76;726;-65
2023/02/23 00:09:23;;;;;;;;;;;21.50;60.30;;;;;;1529319;76;675;-63
2023/02/23 00:11:26;;;;;;;;;;;21.60;60.20;;;;;;1529990;76;1289;-65
2023/02/23 00:13:28;;;;;;;;;;;21.50;60.40;;;;;;1529797;76;754;-66
2023/02/23 00:15:30;;;;;;;;;;;21.50;60.40;;;;;;1527675;76;731;-65
2023/02/23 00:17:35;;;;;;;;;;;21.50;60.50;;;;;;1539113;76;1676;-65
2023/02/23 00:19:36;;;;;;;;;;;21.60;60.50;;;;;;1534647;76;1924;-64
2023/02/23 00:21:39;;;;;;;;;;;21.60;60.40;;;;;;1526989;76;1135;-64
2023/02/23 00:23:51;;;;;;;;;;;21.70;60.10;;;;;;1526185;76;778;-66
2023/02/23 00:25:53;;;;;;;;;;;21.80;60.00;;;;;;1534396;76;686;-64
2023/02/23 00:27:55;;;;;;;;;;;21.70;60.20;;;;;;1526135;76;698;-66
2023/02/23 00:29:57;;;;;;;;;;;21.70;59.90;;;;;;1529149;76;1507;-64
2023/02/23 00:31:59;;;;;;;;;;;21.80;60.20;;;;;;1526913;76;1119;-66
2023/02/23 00:34:01;;;;;;;;;;;21.70;59.90;;;;;;1536723;76;762;-64
2023/02/23 00:36:13;;;;;;;;;;;21.80;60.00;;;;;;1525502;76;692;-63
2023/02/23 00:38:15;;;;;;;;;;;21.70;60.20;;;;;;1526090;76;695;-63
2023/02/23 00:40:19;;;;;;;;;;;21.60;60.20;;;;;;1531736;76;1914;-63
2023/02/23 00:42:20;;;;;;;;;;;21.70;59.90;;;;;;1525759;76;1639;-64
2023/02/23 00:44:23;;;;;;;;;;;21.70;59.70;;;;;;1525307;76;1591;-64
2023/02/23 00:46:28;;;;;;;;;;;21.70;60.10;;;;;;1528161;76;758;-63
2023/02/23 00:48:31;;;;;;;;;;;21.60;59.80;;;;;;1534079;76;1131;-64
2023/02/23 00:50:33;;;;;;;;;;;21.70;60.40;;;;;;1525988;76;1174;-63
2023/02/23 00:52:35;;;;;;;;;;;21.60;60.10;;;;;;1529541;76;679;-63
2023/02/23 00:54:37;;;;;;;;;;;21.50;60.50;;;;;;1533843;76;679;-65
2023/02/23 00:56:39;;;;;;;;;;;21.60;60.30;;;;;;1534839;76;658;-63
2023/02/23 00:58:41;;;;;;;;;;;21.50;60.50;;;;;;1534211;76;1608;-65
2023/02/23 01:00:43;;;;;;;;;;;21.60;60.30;;;;;;1527585;76;1913;-66
2023/02/23 01:02:45;;;;;;;;;;;21.70;60.10;;;;;;1537525;76;682;-63
2023/02/23 01:04:47;;;;;;;;;;;21.80;59.80;;;;;;1526235;76;775;-63
2023/02/23 01:06:49;;;;;;;;;;;21.80;59.60;;;;;;1525695;76;704;-63
2023/02/23 01:08:56;;;;;;;;;;;21.80;59.80;;;;;;1538496;76;700;-63
2023/02/23 01:10:55;;;;;;;;;;;21.70;59.70;;;;;;1526145;76;1613;-66
2023/02/23 01:12:57;;;;;;;;;;;21.70;60.30;;;;;;1525349;76;1568;-64
2023/02/23 01:14:59;;;;;;;;;;;21.70;60.40;;;;;;1525312;76;668;-65
2023/02/23 01:17:02;;;;;;;;;;;21.60;60.40;;;;;;1526088;76;1671;-64
2023/02/23 01:19:04;;;;;;;;;;;21.70;60.30;;;;;;1526406;76;735;-63
2023/02/23 01:21:07;;;;;;;;;;;21.70;60.10;;;;;;1524443;76;1932;-64
2023/02/23 01:23:11;;;;;;;;;;;21.70;60.10;;;;;;1524686;76;1813;-64
2023/02/23 01:25:13;;;;;;;;;;;21.70;60.00;;;;;;1526667;76;651;-64
2023/02/23 01:27:15;;;;;;;;;;;21.70;60.30;;;;;;1538703;76;1602;-63
2023/02/23 01:29:17;;;;;;;;;;;21.60;60.50;;;;;;1529210;76;682;-63
2023/02/23 01:31:19;;;;;;;;;;;21.60;60.70;;;;;;1532745;76;1141;-63
2023/02/23 01:33:21;;;;;;;;;;;21.40;60.70;;;;;;1532645;76;673;-64
2023/02/23 01:35:23;;;;;;;;;;;21.30;60.90;;;;;;1529560;76;681;-65
2023/02/23 01:37:25;;;;;;;;;;;21.30;60.90;;;;;;1525438;76;701;-64
2023/02/23 01:39:27;;;;;;;;;;;21.30;61.20;;;;;;1533580;76;707;-66
2023/02/23 01:41:31;;;;;;;;;;;21.20;61.10;;;;;;1530130;76;1913;-67
2023/02/23 01:43:32;;;;;;;;;;;21.20;61.20;;;;;;1533703;76;1655;-65
2023/02/23 01:45:34;;;;;;;;;;;21.20;61.30;;;;;;1525919;76;768;-64
2023/02/23 01:47:36;;;;;;;;;;;21.10;61.30;;;;;;1525661;76;704;-64
2023/02/23 01:49:39;;;;;;;;;;;21.10;61.40;;;;;;1525116;76;750;-64
2023/02/23 01:51:42;;;;;;;;;;;21.20;61.40;;;;;;1527262;76;1106;-64
2023/02/23 01:53:45;;;;;;;;;;;21.10;61.50;;;;;;1529169;76;688;-66
2023/02/23 01:55:48;;;;;;;;;;;21.20;61.40;;;;;;1525853;76;1535;-65
2023/02/23 01:57:52;;;;;;;;;;;21.20;61.60;;;;;;1532270;76;1831;-66
2023/02/23 01:59:54;;;;;;;;;;;21.10;61.60;;;;;;1545365;76;718;-64
2023/02/23 02:01:56;;;;;;;;;;;21.10;61.80;;;;;;1542100;76;1935;-64
2023/02/23 02:03:58;;;;;;;;;;;21.00;61.70;;;;;;1526708;76;723;-65
2023/02/23 02:06:01;;;;;;;;;;;21.00;61.70;;;;;;1525831;76;776;-64
2023/02/23 02:08:05;;;;;;;;;;;21.00;61.80;;;;;;1534005;76;811;-64
2023/02/23 02:12:17;;;;;;;;;;;21.10;61.50;;;;;;1526615;76;715;-64
2023/02/23 02:14:27;;;;;;;;;;;21.10;61.30;;;;;;1527773;76;767;-65
2023/02/23 02:16:33;;;;;;;;;;;21.20;61.20;;;;;;1525480;76;704;-62
2023/02/23 02:18:37;;;;;;;;;;;21.30;61.80;;;;;;1526740;76;709;-63
2023/02/23 02:20:43;;;;;;;;;;;21.20;61.70;;;;;;1531442;76;1941;-63
2023/02/23 02:22:53;;;;;;;;;;;21.10;61.80;;;;;;1531990;76;1537;-66
2023/02/23 02:25:10;;;;;;;;;;;21.10;61.90;;;;;;1525793;76;759;-64
2023/02/23 02:27:20;;;;;;;;;;;21.10;62.00;;;;;;1525645;76;1583;-64
2023/02/23 02:29:27;;;;;;;;;;;21.10;61.80;;;;;;1533424;76;699;-64
2023/02/23 02:31:50;;;;;;;;;;;21.10;61.70;;;;;;1528980;76;1142;-66
2023/02/23 02:34:10;;;;;;;;;;;21.00;61.80;;;;;;1525833;76;2039;-66
2023/02/23 02:36:30;;;;;;;;;;;21.10;61.80;;;;;;1535604;76;688;-65
2023/02/23 02:38:34;;;;;;;;;;;21.00;61.80;;;;;;1530490;76;722;-65
2023/02/23 02:40:37;;;;;;;;;;;21.00;61.80;;;;;;1526838;76;1929;-68
2023/02/23 02:42:42;;;;;;;;;;;21.00;61.80;;;;;;1525483;76;693;-65
2023/02/23 02:44:48;;;;;;;;;;;21.00;61.70;;;;;;1529829;76;1897;-69
2023/02/23 02:46:50;;;;;;;;;;;21.00;61.80;;;;;;1537051;76;946;-64
2023/02/23 02:49:02;;;;;;;;;;;21.10;61.90;;;;;;1531257;76;729;-65
2023/02/23 02:51:08;;;;;;;;;;;20.90;61.90;;;;;;1533177;76;1609;-66
2023/02/23 02:53:10;;;;;;;;;;;21.00;61.80;;;;;;1525823;76;1881;-66
2023/02/23 02:55:14;;;;;;;;;;;21.00;61.90;;;;;;1525092;76;693;-64
2023/02/23 02:57:16;;;;;;;;;;;21.00;61.90;;;;;;1537057;76;629;-65
2023/02/23 04:19:28;;;;;;;;;;;21.30;60.20;;;;;;1536819;77;998;-63
2023/02/23 04:21:30;;;;;;;;;;;21.40;60.00;;;;;;1592504;73;1956;-64
2023/02/23 04:23:32;;;;;;;;;;;21.40;59.80;;;;;;1601136;73;739;-66
2023/02/23 04:25:34;;;;;;;;;;;21.50;60.00;;;;;;1589871;73;720;-67
2023/02/23 04:27:36;;;;;;;;;;;21.50;59.90;;;;;;1597814;73;688;-63
2023/02/23 04:29:38;;;;;;;;;;;21.60;59.90;;;;;;1602113;73;1569;-63
2023/02/23 04:31:43;;;;;;;;;;;21.50;59.80;;;;;;1592636;73;1141;-64
2023/02/23 04:33:45;;;;;;;;;;;21.50;60.20;;;;;;1584165;73;682;-65
2023/02/23 04:35:47;;;;;;;;;;;21.40;60.20;;;;;;1591424;73;691;-67
2023/02/23 04:37:49;;;;;;;;;;;21.40;60.10;;;;;;1586740;73;685;-63
2023/02/23 04:39:51;;;;;;;;;;;21.30;60.10;;;;;;1606257;73;662;-64
2023/02/23 04:41:52;;;;;;;;;;;21.40;60.20;;;;;;1587456;73;1950;-68
2023/02/23 04:43:54;;;;;;;;;;;21.30;60.30;;;;;;1590560;73;1558;-62
2023/02/23 04:45:56;;;;;;;;;;;21.20;60.50;;;;;;1582657;73;728;-64
2023/02/23 04:47:58;;;;;;;;;;;21.20;60.70;;;;;;1586018;73;683;-63
2023/02/23 04:50:00;;;;;;;;;;;21.00;60.80;;;;;;1587209;73;693;-64
2023/02/23 04:52:02;;;;;;;;;;;21.10;60.90;;;;;;1585607;73;1065;-62
2023/02/23 04:54:04;;;;;;;;;;;21.10;61.00;;;;;;1592745;73;664;-62
2023/02/23 04:56:07;;;;;;;;;;;21.20;60.90;;;;;;1590066;73;760;-62
2023/02/23 04:58:12;;;;;;;;;;;21.20;60.80;;;;;;1591372;73;1427;-63
2023/02/23 05:00:12;;;;;;;;;;;21.30;60.70;;;;;;1592085;73;1528;-64
2023/02/23 05:02:14;;;;;;;;;;;21.30;60.50;;;;;;1584425;73;1944;-63
2023/02/23 05:04:16;;;;;;;;;;;21.30;60.40;;;;;;1596301;73;697;-64
2023/02/23 05:06:18;;;;;;;;;;;21.30;60.40;;;;;;1594911;73;687;-64
2023/02/23 05:08:20;;;;;;;;;;;21.30;60.20;;;;;;1585453;73;750;-65
2023/02/23 05:10:22;;;;;;;;;;;21.40;60.00;;;;;;1588568;73;1187;-66
2023/02/23 05:12:23;;;;;;;;;;;21.40;60.00;;;;;;1583559;73;1505;-64
2023/02/23 05:14:25;;;;;;;;;;;21.40;59.70;;;;;;1589017;73;725;-65
2023/02/23 05:16:27;;;;;;;;;;;21.50;59.80;;;;;;1582561;73;735;-64
2023/02/23 05:18:29;;;;;;;;;;;21.50;59.60;;;;;;1583238;73;677;-64
2023/02/23 05:20:31;;;;;;;;;;;21.50;59.70;;;;;;1603988;73;1181;-63
2023/02/23 05:22:33;;;;;;;;;;;21.50;59.60;;;;;;1585895;73;1919;-66
2023/02/23 05:24:35;;;;;;;;;;;21.50;59.60;;;;;;1585030;73;681;-63
2023/02/23 05:26:37;;;;;;;;;;;21.40;60.10;;;;;;1583484;73;1382;-64
2023/02/23 05:28:39;;;;;;;;;;;21.40;60.00;;;;;;1584409;73;684;-63
2023/02/23 05:30:41;;;;;;;;;;;21.50;59.90;;;;;;1591466;73;1138;-63
2023/02/23 05:32:43;;;;;;;;;;;21.60;59.50;;;;;;1585756;73;661;-63
2023/02/23 05:34:45;;;;;;;;;;;21.60;59.20;;;;;;1605348;73;710;-62
2023/02/23 05:36:47;;;;;;;;;;;21.70;59.10;;;;;;1604773;73;714;-63
2023/02/23 05:38:49;;;;;;;;;;;21.70;58.90;;;;;;1606860;73;697;-63
2023/02/23 05:40:51;;;;;;;;;;;21.70;58.90;;;;;;1583366;73;1535;-63
2023/02/23 05:42:54;;;;;;;;;;;21.60;58.90;;;;;;1589363;73;1938;-64
2023/02/23 05:44:56;;;;;;;;;;;21.70;58.90;;;;;;1582569;73;1757;-64
2023/02/23 05:46:58;;;;;;;;;;;21.70;58.90;;;;;;1591944;73;762;-63
2023/02/23 05:49:00;;;;;;;;;;;21.70;58.70;;;;;;1586596;74;819;-62
2023/02/23 05:51:03;;;;;;;;;;;21.80;58.60;;;;;;1590021;73;1140;-62
2023/02/23 05:53:05;;;;;;;;;;;21.80;58.20;;;;;;1591960;73;695;-64
2023/02/23 05:55:08;;;;;;;;;;;21.70;58.20;;;;;;1599816;73;1657;-65
2023/02/23 05:57:10;;;;;;;;;;;21.70;58.50;;;;;;1587712;73;767;-64
2023/02/23 05:59:12;;;;;;;;;;;21.70;58.20;;;;;;1596344;73;642;-64
2023/02/23 06:01:14;;;;;;;;;;;21.70;58.70;;;;;;1590860;73;1130;-64
2023/02/23 06:03:17;;;;;;;;;;;21.70;58.80;;;;;;1586743;73;695;-65
2023/02/23 06:05:19;;;;;;;;;;;21.70;58.70;;;;;;1592749;73;718;-63
2023/02/23 06:07:20;;;;;;;;;;;21.70;58.80;;;;;;1584136;73;1544;-64
2023/02/23 06:09:22;;;;;;;;;;;21.80;58.80;;;;;;1585894;73;734;-64
2023/02/23 06:11:24;;;;;;;;;;;21.80;58.70;;;;;;1590027;73;1115;-65
2023/02/23 06:13:27;;;;;;;;;;;21.80;58.90;;;;;;1598131;73;685;-67
2023/02/23 06:15:29;;;;;;;;;;;21.90;59.10;;;;;;1585616;73;659;-65
2023/02/23 06:17:31;;;;;;;;;;;21.70;58.90;;;;;;1588247;73;693;-65
2023/02/23 06:19:33;;;;;;;;;;;21.70;58.80;;;;;;1600341;73;753;-64
2023/02/23 06:21:35;;;;;;;;;;;21.70;58.70;;;;;;1597843;73;1947;-64
2023/02/23 06:23:37;;;;;;;;;;;21.70;58.60;;;;;;1593526;73;729;-65
2023/02/23 06:25:39;;;;;;;;;;;21.70;58.20;;;;;;1584893;73;688;-64
2023/02/23 06:27:43;;;;;;;;;;;21.70;58.10;;;;;;1585724;73;707;-63
2023/02/23 06:29:45;;;;;;;;;;;21.70;58.00;;;;;;1589032;73;739;-64
2023/02/23 06:31:47;;;;;;;;;;;21.70;57.80;;;;;;1585614;73;1120;-63
2023/02/23 06:33:49;;;;;;;;;;;21.70;57.80;;;;;;1614536;73;678;-63
2023/02/23 06:35:51;;;;;;;;;;;21.70;57.70;;;;;;1589724;73;1530;-65
2023/02/23 06:37:53;;;;;;;;;;;21.70;57.60;;;;;;1596125;73;831;-62
2023/02/23 06:39:55;;;;;;;;;;;21.70;57.60;;;;;;1586402;73;671;-62
2023/02/23 06:41:57;;;;;;;;;;;21.80;57.60;;;;;;1586585;73;1940;-65
2023/02/23 06:43:59;;;;;;;;;;;21.70;57.60;;;;;;1587921;73;695;-65
2023/02/23 06:46:01;;;;;;;;;;;21.70;57.60;;;;;;1586200;73;715;-66
2023/02/23 06:48:04;;;;;;;;;;;21.70;57.50;;;;;;1592879;73;1095;-62
2023/02/23 06:50:06;;;;;;;;;;;21.70;57.50;;;;;;1587138;73;1515;-66
2023/02/23 06:52:08;;;;;;;;;;;21.70;57.40;;;;;;1591738;73;1182;-67
2023/02/23 06:54:10;;;;;;;;;;;21.70;57.50;;;;;;1586738;73;743;-65
2023/02/23 06:56:12;;;;;;;;;;;21.70;57.40;;;;;;1584072;73;743;-66
2023/02/23 06:58:14;;;;;;;;;;;21.70;57.50;;;;;;1592966;73;769;-66
2023/02/23 07:00:16;;;;;;;;;;;21.70;57.60;;;;;;1587285;73;1104;-64
2023/02/23 07:02:18;;;;;;;;;;;21.70;57.60;;;;;;1591041;73;1911;-66
2023/02/23 07:04:20;;;;;;;;;;;21.70;57.50;;;;;;1589181;73;1531;-68
2023/02/23 07:06:23;;;;;;;;;;;21.70;57.40;;;;;;1588406;73;768;-62
2023/02/23 07:08:25;;;;;;;;;;;21.70;57.30;;;;;;1587377;73;700;-63
2023/02/23 07:10:27;;;;;;;;;;;21.70;57.30;;;;;;1592078;73;1142;-65
2023/02/23 07:12:29;;;;;;;;;;;21.80;57.30;;;;;;1586978;73;1340;-63
2023/02/23 07:14:32;;;;;;;;;;;21.80;57.30;;;;;;1594695;73;1502;-66
2023/02/23 07:16:33;;;;;;;;;;;21.80;57.40;;;;;;1594916;73;1509;-66
2023/02/23 07:18:35;;;;;;;;;;;21.70;57.40;;;;;;1593531;73;1555;-64
2023/02/23 07:20:37;;;;;;;;;;;21.70;57.40;;;;;;1587118;73;1564;-62
2023/02/23 07:22:39;;;;;;;;;;;21.70;57.50;;;;;;1594760;73;1944;-64
2023/02/23 07:24:41;;;;;;;;;;;21.70;57.50;;;;;;1584035;73;1509;-66
2023/02/23 07:26:45;;;;;;;;;;;21.70;57.40;;;;;;1588956;73;1530;-63
2023/02/23 07:28:46;;;;;;;;;;;21.70;57.30;;;;;;1586271;73;1655;-66
2023/02/23 07:30:51;;;;;;;;;;;21.70;57.30;;;;;;1594057;73;1365;-63
2023/02/23 07:32:53;;;;;;;;;;;21.70;57.30;;;;;;1595733;73;1445;-65
2023/02/23 07:34:55;;;;;;;;;;;21.70;57.30;;;;;;1587203;73;1189;-62
2023/02/23 07:36:56;;;;;;;;;;;21.70;57.40;;;;;;1589175;73;1327;-63
2023/02/23 07:38:58;;;;;;;;;;;21.70;57.30;;;;;;1591284;73;1354;-63
2023/02/23 07:41:00;;;;;;;;;;;21.70;57.30;;;;;;1590909;73;1366;-63
2023/02/23 07:43:02;;;;;;;;;;;21.70;57.30;;;;;;1586575;73;1941;-66
2023/02/23 07:45:04;;;;;;;;;;;21.80;57.30;;;;;;1589650;73;1242;-63
2023/02/23 07:47:06;;;;;;;;;;;21.70;57.30;;;;;;1598264;73;1519;-65
2023/02/23 07:49:08;;;;;;;;;;;21.70;57.30;;;;;;1587883;73;1343;-63
2023/02/23 07:51:12;;;;;;;;;;;21.70;57.40;;;;;;1594147;73;1259;-65
2023/02/23 07:53:14;;;;;;;;;;;21.70;57.50;;;;;;1595863;73;2000;-66
2023/02/23 07:55:16;;;;;;;;;;;21.70;57.60;;;;;;1589785;73;1481;-64
2023/02/23 07:57:19;;;;;;;;;;;21.60;57.50;;;;;;1595335;73;1426;-62
2023/02/23 07:59:21;;;;;;;;;;;21.70;57.50;;;;;;1588665;73;1514;-63
2023/02/23 08:01:23;;;;;;;;;;;21.70;57.40;;;;;;1589545;73;1474;-66
2023/02/23 08:03:25;;;;;;;;;;;21.70;57.50;;;;;;1591808;73;1933;-62
2023/02/23 08:05:27;;;;;;;;;;;21.80;57.40;;;;;;1591175;73;1178;-63
2023/02/23 08:07:30;;;;;;;;;;;21.60;57.50;;;;;;1592389;73;1314;-62
2023/02/23 08:09:33;;;;;;;;;;;21.60;57.70;;;;;;1587375;73;1356;-64
2023/02/23 08:11:35;;;;;;;;;;;21.60;57.70;;;;;;1591831;73;1346;-65
2023/02/23 08:13:37;;;;;;;;;;;21.70;57.60;;;;;;1590629;73;1298;-67
2023/02/23 08:15:39;;;;;;;;;;;21.70;57.60;;;;;;1588934;73;1582;-64
2023/02/23 08:17:42;;;;;;;;;;;21.70;57.60;;;;;;1597328;73;1355;-62
2023/02/23 08:19:44;;;;;;;;;;;21.70;57.50;;;;;;1587199;73;1264;-62
2023/02/23 08:21:46;;;;;;;;;;;21.70;57.60;;;;;;1590719;73;1314;-67
2023/02/23 08:23:48;;;;;;;;;;;21.70;57.60;;;;;;1596569;73;1952;-63
2023/02/23 08:25:50;;;;;;;;;;;21.70;57.60;;;;;;1592210;73;1297;-68
2023/02/23 08:27:52;;;;;;;;;;;21.70;58.10;;;;;;1591714;73;1143;-66
2023/02/23 08:29:56;;;;;;;;;;;21.60;59.10;;;;;;1586063;73;1692;-64
2023/02/23 08:31:58;;;;;;;;;;;21.50;59.50;;;;;;1591177;73;1380;-63
2023/02/23 08:34:00;;;;;;;;;;;21.60;60.20;;;;;;1565922;75;1352;-63
2023/02/23 08:36:02;;;;;;;;;;;21.60;60.10;;;;;;1596718;73;1317;-63
2023/02/23 08:38:04;;;;;;;;;;;21.60;59.70;;;;;;1593202;73;1307;-63
2023/02/23 08:40:06;;;;;;;;;;;21.60;59.40;;;;;;1586380;73;1206;-64
2023/02/23 08:42:08;;;;;;;;;;;21.70;59.30;;;;;;1591750;73;1504;-66
2023/02/23 08:44:10;;;;;;;;;;;21.70;59.10;;;;;;1587976;73;1918;-64
2023/02/23 08:46:12;;;;;;;;;;;21.70;59.10;;;;;;1589336;73;1380;-65
2023/02/23 08:48:14;;;;;;;;;;;21.70;58.90;;;;;;1594442;73;1094;-64
2023/02/23 08:50:16;;;;;;;;;;;21.70;58.80;;;;;;1593373;73;1508;-63
2023/02/23 08:52:18;;;;;;;;;;;21.80;58.70;;;;;;1592856;73;1260;-64
2023/02/23 08:54:20;;;;;;;;;;;21.80;58.60;;;;;;1589962;73;1279;-63
2023/02/23 08:56:24;;;;;;;;;;;21.70;58.20;;;;;;1593720;73;1499;-63
2023/02/23 08:58:25;;;;;;;;;;;21.60;59.60;;;;;;1589235;73;1674;-69
2023/02/23 09:00:27;;;;;;;;;;;21.50;59.80;;;;;;1586074;73;1229;-60
2023/02/23 09:02:29;;;;;;;;;;;21.60;59.40;;;;;;1590453;73;1927;-65
2023/02/23 09:04:33;;;;;;;;;;;21.70;59.20;;;;;;1587977;73;1098;-60
2023/02/23 09:06:35;;;;;;;;;;;21.80;59.00;;;;;;1588965;73;1506;-60
2023/02/23 09:08:38;;;;;;;;;;;21.70;58.80;;;;;;1605744;73;1329;-60
2023/02/23 09:10:42;;;;;;;;;;;21.80;58.60;;;;;;1589234;73;1381;-59
2023/02/23 09:12:43;;;;;;;;;;;21.80;58.50;;;;;;1586056;73;1656;-59
2023/02/23 09:14:45;;;;;;;;;;;21.80;58.10;;;;;;1587490;73;1482;-62
2023/02/23 09:16:47;;;;;;;;;;;21.80;58.10;;;;;;1595261;73;1130;-62
2023/02/23 09:18:49;;;;;;;;;;;21.80;58.00;;;;;;1604590;73;1392;-62
2023/02/23 09:20:51;;;;;;;;;;;21.80;58.00;;;;;;1586571;73;1170;-62
2023/02/23 09:22:52;;;;;;;;;;;21.80;58.00;;;;;;1592727;73;1945;-62
2023/02/23 09:24:54;;;;;;;;;;;21.80;57.90;;;;;;1598614;73;1577;-62
2023/02/23 09:26:56;;;;;;;;;;;21.80;57.90;;;;;;1593900;73;1186;-61
2023/02/23 09:28:58;;;;;;;;;;;21.90;57.90;;;;;;1590178;73;1031;-62
2023/02/23 09:31:10;;;;;;;;;;;21.90;57.90;;;;;;1591611;73;1364;-62
2023/02/23 09:33:12;;;;;;;;;;;21.90;57.90;;;;;;1591060;73;1272;-63
2023/02/23 09:35:16;;;;;;;;;;;21.90;57.90;;;;;;1593206;73;1249;-63
2023/02/23 09:37:17;;;;;;;;;;;21.80;57.80;;;;;;1594841;73;1509;-62
2023/02/23 09:39:19;;;;;;;;;;;21.80;57.80;;;;;;1594155;73;1532;-62
2023/02/23 09:41:40;;;;;;;;;;;21.80;57.80;;;;;;1589694;73;1381;-63
2023/02/23 09:43:46;;;;;;;;;;;21.80;57.70;;;;;;1592478;73;1938;-62
2023/02/23 09:45:49;;;;;;;;;;;21.80;57.70;;;;;;1592859;73;1573;-62
2023/02/23 09:47:53;;;;;;;;;;;21.80;57.70;;;;;;1591303;73;1241;-62
2023/02/23 09:49:55;;;;;;;;;;;21.80;57.70;;;;;;1581407;73;1691;-62
2023/02/23 09:51:57;;;;;;;;;;;21.80;57.80;;;;;;1589861;73;1372;-62
2023/02/23 09:53:59;;;;;;;;;;;21.80;57.70;;;;;;1593092;73;1610;-62
2023/02/23 09:56:02;;;;;;;;;;;21.80;57.70;;;;;;1585640;73;1509;-63
2023/02/23 09:58:06;;;;;;;;;;;21.80;57.60;;;;;;1590932;73;1280;-62
2023/02/23 10:00:26;;;;;;;;;;;21.80;57.60;;;;;;1585199;73;1271;-62
2023/02/23 10:02:33;;;;;;;;;;;21.80;57.60;;;;;;1589610;73;1533;-62
2023/02/23 10:04:39;;;;;;;;;;;21.80;57.70;;;;;;1591841;73;1911;-63
2023/02/23 10:06:42;;;;;;;;;;;21.80;57.60;;;;;;1598730;73;1531;-63
2023/02/23 10:08:48;;;;;;;;;;;21.80;57.70;;;;;;1590083;73;1319;-63
2023/02/23 10:10:52;;;;;;;;;;;21.80;57.60;;;;;;1584546;73;1342;-62
2023/02/23 10:12:55;;;;;;;;;;;21.80;57.60;;;;;;1587681;73;1335;-63
2023/02/23 10:15:17;;;;;;;;;;;21.80;57.60;;;;;;1592320;73;1954;-63
2023/02/23 10:17:35;;;;;;;;;;;21.80;57.60;;;;;;1589175;73;1732;-63
2023/02/23 10:19:40;;;;;;;;;;;21.80;57.60;;;;;;1590129;73;1314;-61
2023/02/23 10:21:44;;;;;;;;;;;21.80;57.60;;;;;;1586931;73;1826;-63
2023/02/23 10:23:53;;;;;;;;;;;21.80;57.60;;;;;;1597096;73;1918;-63
2023/02/23 10:25:58;;;;;;;;;;;21.80;57.60;;;;;;1585710;73;1661;-63
2023/02/23 10:27:59;;;;;;;;;;;21.80;57.60;;;;;;1596337;73;1668;-63
2023/02/23 10:30:03;;;;;;;;;;;21.80;57.60;;;;;;1584234;73;1331;-63
2023/02/23 10:32:06;;;;;;;;;;;21.80;57.60;;;;;;1598659;73;1364;-63
2023/02/23 10:34:12;;;;;;;;;;;21.80;57.60;;;;;;1589506;73;1268;-64
2023/02/23 10:36:15;;;;;;;;;;;21.80;57.60;;;;;;1588219;73;1489;-63
2023/02/23 10:38:17;;;;;;;;;;;21.80;57.50;;;;;;1586125;73;1776;-63
2023/02/23 10:40:21;;;;;;;;;;;21.80;57.50;;;;;;1589300;73;1204;-63
2023/02/23 10:42:27;;;;;;;;;;;21.80;57.50;;;;;;1592596;73;1259;-63
2023/02/23 10:44:27;;;;;;;;;;;21.80;57.50;;;;;;1586565;73;1922;-63
2023/02/23 10:46:37;;;;;;;;;;;21.80;57.50;;;;;;1590034;73;1132;-64
2023/02/23 10:48:41;;;;;;;;;;;21.80;57.50;;;;;;1588786;73;1483;-63
2023/02/23 10:50:44;;;;;;;;;;;21.80;57.50;;;;;;1586946;73;1292;-63
2023/02/23 10:52:46;;;;;;;;;;;21.80;57.50;;;;;;1595445;73;1106;-64
2023/02/23 10:54:48;;;;;;;;;;;21.80;57.60;;;;;;1593748;73;1089;-62
2023/02/23 10:56:52;;;;;;;;;;;21.80;57.50;;;;;;1594068;73;1292;-63
2023/02/23 10:58:55;;;;;;;;;;;21.80;57.50;;;;;;1589208;73;1091;-63
2023/02/23 11:01:00;;;;;;;;;;;21.80;57.50;;;;;;1595326;73;1545;-64
2023/02/23 11:03:05;;;;;;;;;;;21.80;57.50;;;;;;1595117;73;1939;-63
2023/02/23 11:05:07;;;;;;;;;;;21.80;57.50;;;;;;1591086;73;1126;-63
2023/02/23 11:07:09;;;;;;;;;;;21.80;57.50;;;;;;1588734;73;1198;-64
2023/02/23 11:09:28;;;;;;;;;;;21.80;57.60;;;;;;1570260;74;1403;-63
2023/02/23 11:11:30;;;;;;;;;;;21.80;57.60;;;;;;1589953;73;1526;-63
2023/02/23 11:13:36;;;;;;;;;;;21.80;57.60;;;;;;1595795;74;1099;-63
2023/02/23 11:15:42;;;;;;;;;;;21.80;57.60;;;;;;1593690;73;1104;-63
2023/02/23 11:17:41;;;;;;;;;;;21.80;57.60;;;;;;1595517;73;1711;-64
2023/02/23 11:19:43;;;;;;;;;;;21.80;57.60;;;;;;1587909;73;1138;-63
2023/02/23 11:21:47;;;;;;;;;;;21.80;57.60;;;;;;1585765;73;1539;-63
2023/02/23 11:23:49;;;;;;;;;;;21.80;57.60;;;;;;1584147;73;2045;-63
2023/02/23 11:25:54;;;;;;;;;;;21.80;57.70;;;;;;1593453;73;1135;-63
2023/02/23 11:27:55;;;;;;;;;;;21.80;57.60;;;;;;1589638;73;1620;-63
2023/02/23 11:29:58;;;;;;;;;;;21.70;57.70;;;;;;1591764;73;1505;-63
2023/02/23 11:31:59;;;;;;;;;;;21.80;57.80;;;;;;1598006;73;1590;-62
2023/02/23 11:34:05;;;;;;;;;;;21.70;57.80;;;;;;1595430;73;1154;-63
2023/02/23 11:36:21;;;;;;;;;;;21.80;57.80;;;;;;1587147;73;1119;-64
2023/02/23 11:38:23;;;;;;;;;;;21.80;57.80;;;;;;1558014;74;1393;-64
2023/02/23 11:40:28;;;;;;;;;;;21.80;57.80;;;;;;1587426;73;1095;-63
2023/02/23 11:42:35;;;;;;;;;;;21.80;57.80;;;;;;1581437;73;740;-63
2023/02/23 11:44:35;;;;;;;;;;;21.80;57.80;;;;;;1600641;73;1922;-63
2023/02/23 11:46:37;;;;;;;;;;;21.80;58.00;;;;;;1588122;73;1290;-63
2023/02/23 11:48:50;;;;;;;;;;;21.90;58.20;;;;;;1591012;73;736;-65
2023/02/23 11:50:52;;;;;;;;;;;21.80;58.50;;;;;;1586609;73;1203;-64
2023/02/23 11:53:01;;;;;;;;;;;21.80;58.80;;;;;;1586060;73;743;-64
2023/02/23 11:55:05;;;;;;;;;;;21.80;58.90;;;;;;1575482;73;1686;-63
2023/02/23 11:57:07;;;;;;;;;;;21.80;59.10;;;;;;1591203;73;735;-64
2023/02/23 11:59:10;;;;;;;;;;;21.80;59.70;;;;;;1594480;73;1382;-65
2023/02/23 12:01:15;;;;;;;;;;;21.80;59.60;;;;;;1586843;73;1833;-63
2023/02/23 12:03:18;;;;;;;;;;;21.80;59.80;;;;;;1589925;73;769;-67
2023/02/23 12:05:21;;;;;;;;;;;21.80;59.80;;;;;;1586799;73;1916;-62
2023/02/23 12:07:37;;;;;;;;;;;21.70;59.90;;;;;;1589093;73;724;-63
2023/02/23 12:09:35;;;;;;;;;;;21.80;60.00;;;;;;1592253;73;1116;-62
2023/02/23 12:11:38;;;;;;;;;;;21.80;60.00;;;;;;1588609;73;1140;-62
2023/02/23 12:13:42;;;;;;;;;;;21.90;60.20;;;;;;1587432;73;1459;-62
2023/02/23 12:15:45;;;;;;;;;;;21.90;60.30;;;;;;1594593;73;790;-62
2023/02/23 12:17:49;;;;;;;;;;;21.90;60.30;;;;;;1589497;73;1019;-63
2023/02/23 12:19:52;;;;;;;;;;;21.90;60.20;;;;;;1583501;73;722;-62
2023/02/23 12:21:59;;;;;;;;;;;21.90;60.20;;;;;;1585750;73;1766;-62
2023/02/23 12:24:02;;;;;;;;;;;21.90;60.10;;;;;;1593476;73;1943;-62
2023/02/23 12:26:05;;;;;;;;;;;21.90;60.10;;;;;;1594593;73;664;-62
2023/02/23 12:28:11;;;;;;;;;;;21.90;60.00;;;;;;1590320;73;1573;-62
2023/02/23 12:30:20;;;;;;;;;;;21.90;60.00;;;;;;1588615;73;1156;-62
2023/02/23 12:32:36;;;;;;;;;;;21.90;59.90;;;;;;1593506;73;885;-64
2023/02/23 12:34:46;;;;;;;;;;;22.00;59.90;;;;;;1590051;73;1117;-62
2023/02/23 12:36:52;;;;;;;;;;;21.90;59.80;;;;;;1590226;73;702;-62
2023/02/23 12:39:00;;;;;;;;;;;21.90;59.80;;;;;;1588703;73;718;-62
2023/02/23 12:41:06;;;;;;;;;;;21.90;59.80;;;;;;1591359;73;1144;-62
2023/02/23 12:43:17;;;;;;;;;;;21.90;59.70;;;;;;1557629;73;1305;-62
2023/02/23 12:45:23;;;;;;;;;;;21.90;59.70;;;;;;1572216;73;1913;-62
2023/02/23 12:47:32;;;;;;;;;;;22.00;59.70;;;;;;1586424;73;708;-62
2023/02/23 12:49:35;;;;;;;;;;;21.90;59.70;;;;;;1583791;73;688;-62
2023/02/23 12:51:42;;;;;;;;;;;21.90;59.60;;;;;;1587795;73;1806;-62
2023/02/23 12:53:43;;;;;;;;;;;21.90;59.60;;;;;;1588487;73;1870;-62
2023/02/23 12:55:56;;;;;;;;;;;21.90;59.60;;;;;;1583649;73;1582;-62
2023/02/23 12:58:00;;;;;;;;;;;21.90;59.30;;;;;;1588340;73;705;-62
2023/02/23 13:00:19;;;;;;;;;;;21.90;59.10;;;;;;1598011;73;1895;-63
2023/02/23 13:02:15;;;;;;;;;;;21.90;59.20;;;;;;1587567;73;1644;-63
2023/02/23 13:04:35;;;;;;;;;;;21.90;59.10;;;;;;1592943;73;1907;-62
2023/02/23 13:06:38;;;;;;;;;;;21.90;58.70;;;;;;1602927;73;744;-62
2023/02/23 13:08:57;;;;;;;;;;;21.90;58.30;;;;;;1583743;73;658;-63
2023/02/23 13:11:01;;;;;;;;;;;21.80;58.50;;;;;;1597019;73;1552;-64
2023/02/23 13:13:04;;;;;;;;;;;21.80;58.60;;;;;;1585566;73;685;-63
2023/02/23 13:15:22;;;;;;;;;;;21.70;58.90;;;;;;1587094;73;1872;-64
2023/02/23 13:17:38;;;;;;;;;;;21.70;59.10;;;;;;1591159;73;778;-62
2023/02/23 13:19:48;;;;;;;;;;;21.60;59.00;;;;;;1584816;73;744;-62
2023/02/23 13:21:54;;;;;;;;;;;21.80;59.00;;;;;;1588237;73;1770;-64
2023/02/23 13:24:10;;;;;;;;;;;21.80;58.90;;;;;;1583701;73;1934;-63
2023/02/23 13:26:19;;;;;;;;;;;21.70;58.90;;;;;;1590307;73;1856;-63
2023/02/23 13:28:23;;;;;;;;;;;21.70;59.10;;;;;;1589188;73;1896;-63
2023/02/23 13:30:24;;;;;;;;;;;21.70;59.10;;;;;;1586279;73;1140;-61
2023/02/23 13:32:31;;;;;;;;;;;21.80;59.00;;;;;;1585246;73;678;-63
2023/02/23 13:34:34;;;;;;;;;;;21.80;59.00;;;;;;1590736;73;689;-64
2023/02/23 13:36:36;;;;;;;;;;;21.70;58.90;;;;;;1583050;73;667;-62